createdAt,value
2023-05-22T00:01:46.904Z,4.22
2023-05-22T00:04:21.691Z,5.47
2023-05-22T00:06:49.605Z,5.68
2023-05-22T00:09:16.745Z,11.07
2023-05-22T00:11:44.401Z,5.95
2023-05-22T00:14:13.540Z,4.65
2023-05-22T00:16:41.479Z,5.10
2023-05-22T00:19:16.467Z,5.57
2023-05-22T00:21:44.716Z,6.22
2023-05-22T00:24:12.728Z,7.93
2023-05-22T00:26:40.231Z,5.40
2023-05-22T00:29:07.278Z,5.97
2023-05-22T00:31:34.689Z,5.90
2023-05-22T00:34:01.838Z,7.45
2023-05-22T00:36:29.467Z,6.28
2023-05-22T00:38:56.513Z,6.13
2023-05-22T00:41:24.210Z,6.03
2023-05-22T00:43:51.431Z,6.50
2023-05-22T00:46:22.954Z,7.18
2023-05-22T00:48:50.216Z,6.53
2023-05-22T00:51:17.536Z,8.07
2023-05-22T00:53:46.294Z,5.30
2023-05-22T00:56:15.194Z,5.40
2023-05-22T00:58:42.801Z,5.20
2023-05-22T01:01:11.593Z,9.38
2023-05-22T01:03:45.065Z,7.50
2023-05-22T01:06:18.445Z,5.72
2023-05-22T01:08:45.592Z,4.68
2023-05-22T01:11:30.606Z,4.97
2023-05-22T01:14:38.964Z,5.85
2023-05-22T01:17:22.730Z,8.60
2023-05-22T01:23:04.381Z,4.95
2023-05-22T01:25:50.252Z,5.07
2023-05-22T01:28:52.203Z,5.00
2023-05-22T01:31:25.824Z,7.03
2023-05-22T01:33:57.521Z,5.60
2023-05-22T01:36:28.779Z,6.32
2023-05-22T01:38:56.685Z,4.32
2023-05-22T01:41:23.822Z,4.53
2023-05-22T01:43:51.130Z,7.50
2023-05-22T01:46:18.309Z,4.78
2023-05-22T01:48:45.737Z,8.77
2023-05-22T01:51:20.302Z,5.65
2023-05-22T01:54:12.422Z,6.65
2023-05-22T01:57:11.364Z,5.85
2023-05-22T02:00:09.886Z,4.32
2023-05-22T02:02:39.420Z,6.70
2023-05-22T02:05:10.233Z,6.25
2023-05-22T02:07:40.234Z,8.90
2023-05-22T02:10:10.228Z,5.45
2023-05-22T02:12:38.005Z,5.43
2023-05-22T02:15:06.986Z,6.85
2023-05-22T02:17:40.399Z,6.35
2023-05-22T02:20:15.094Z,7.60
2023-05-22T02:22:44.588Z,6.22
2023-05-22T02:25:16.995Z,8.20
2023-05-22T02:27:46.020Z,8.55
2023-05-22T02:30:14.479Z,5.78
2023-05-22T02:32:42.603Z,7.47
2023-05-22T02:35:10.424Z,8.30
2023-05-22T02:37:37.681Z,5.55
2023-05-22T02:40:06.445Z,6.43
2023-05-22T02:42:33.503Z,6.53
2023-05-22T02:45:00.865Z,6.07
2023-05-22T02:47:27.955Z,8.52
2023-05-22T02:49:57.901Z,5.75
2023-05-22T02:52:25.519Z,7.40
2023-05-22T02:54:53.231Z,6.78
2023-05-22T02:57:20.345Z,6.93
2023-05-22T02:59:47.935Z,7.05
2023-05-22T03:02:15.474Z,8.02
2023-05-22T03:04:43.186Z,6.45
2023-05-22T03:07:10.204Z,5.05
2023-05-22T03:09:37.809Z,5.85
2023-05-22T03:12:05.592Z,5.88
2023-05-22T03:14:32.933Z,8.25
2023-05-22T03:17:00.922Z,5.68
2023-05-22T03:19:29.573Z,6.95
2023-05-22T03:21:56.683Z,7.07
2023-05-22T03:24:23.997Z,8.38
2023-05-22T03:26:51.020Z,5.78
2023-05-22T03:29:18.532Z,5.78
2023-05-22T03:31:45.725Z,6.50
2023-05-22T03:34:13.146Z,5.20
2023-05-22T03:36:41.356Z,8.30
2023-05-22T03:39:08.859Z,5.07
2023-05-22T03:41:37.060Z,7.28
2023-05-22T03:44:04.436Z,9.07
2023-05-22T03:46:31.525Z,5.15
2023-05-22T03:48:58.840Z,5.90
2023-05-22T03:51:25.905Z,7.13
2023-05-22T03:53:53.151Z,8.55
2023-05-22T03:56:21.379Z,7.45
2023-05-22T03:58:50.218Z,8.10
2023-05-22T04:01:18.021Z,7.13
2023-05-22T04:03:45.494Z,9.05
2023-05-22T04:06:13.863Z,6.63
2023-05-22T04:08:41.423Z,8.70
2023-05-22T04:11:08.446Z,7.38
2023-05-22T04:13:35.859Z,9.02
2023-05-22T04:16:04.333Z,7.93
2023-05-22T04:18:31.657Z,7.28
2023-05-22T04:20:58.613Z,8.18
2023-05-22T04:23:26.185Z,6.95
2023-05-22T04:25:53.812Z,8.38
2023-05-22T04:28:24.192Z,8.70
2023-05-22T04:30:51.277Z,11.75
2023-05-22T04:33:18.574Z,9.63
2023-05-22T04:35:45.638Z,9.65
2023-05-22T04:38:13.109Z,8.82
2023-05-22T04:40:40.885Z,11.20
2023-05-22T04:43:08.951Z,9.88
2023-05-22T04:45:36.122Z,7.65
2023-05-22T04:48:04.377Z,10.02
2023-05-22T04:50:32.906Z,9.02
2023-05-22T04:53:04.509Z,8.50
2023-05-22T04:55:34.713Z,9.68
2023-05-22T04:58:02.978Z,9.38
2023-05-22T05:00:30.307Z,8.68
2023-05-22T05:02:57.838Z,9.80
2023-05-22T05:05:25.113Z,9.02
2023-05-22T05:07:53.379Z,9.45
2023-05-22T05:10:20.590Z,8.68
2023-05-22T05:12:48.088Z,7.60
2023-05-22T05:15:15.224Z,7.63
2023-05-22T05:17:42.870Z,9.38
2023-05-22T05:20:10.634Z,10.68
2023-05-22T05:22:39.805Z,5.90
2023-05-22T05:25:08.549Z,7.47
2023-05-22T05:27:37.951Z,7.30
2023-05-22T05:30:05.640Z,9.35
2023-05-22T05:32:32.978Z,7.38
2023-05-22T05:35:00.146Z,5.88
2023-05-22T05:37:27.573Z,6.90
2023-05-22T05:39:54.691Z,6.90
2023-05-22T05:42:22.071Z,8.20
2023-05-22T05:44:49.118Z,8.73
2023-05-22T05:47:17.789Z,7.70
2023-05-22T05:49:44.799Z,4.75
2023-05-22T05:52:12.441Z,5.70
2023-05-22T05:54:46.553Z,5.72
2023-05-22T05:57:15.161Z,4.53
2023-05-22T05:59:42.479Z,6.53
2023-05-22T06:02:09.977Z,7.68
2023-05-22T06:04:37.235Z,4.70
2023-05-22T06:07:05.101Z,4.25
2023-05-22T06:09:32.363Z,6.95
2023-05-22T06:12:00.095Z,5.75
2023-05-22T06:14:27.285Z,5.40
2023-05-22T06:16:55.178Z,5.22
2023-05-22T06:19:22.459Z,6.53
2023-05-22T06:21:52.033Z,4.93
2023-05-22T06:24:19.460Z,3.85
2023-05-22T06:26:47.149Z,5.47
2023-05-22T06:29:14.277Z,3.35
2023-05-22T06:31:42.169Z,5.70
2023-05-22T06:34:09.638Z,5.13
2023-05-22T06:36:37.592Z,3.75
2023-05-22T06:39:05.083Z,3.25
2023-05-22T06:41:33.704Z,3.67
2023-05-22T06:44:02.354Z,6.57
2023-05-22T06:46:30.342Z,3.00
2023-05-22T06:48:57.526Z,4.18
2023-05-22T06:51:25.695Z,2.90
2023-05-22T06:53:52.947Z,2.83
2023-05-22T06:56:20.762Z,7.38
2023-05-22T06:58:47.859Z,3.83
2023-05-22T07:01:15.675Z,4.07
2023-05-22T07:03:42.779Z,3.95
2023-05-22T07:06:10.447Z,2.83
2023-05-22T07:08:37.592Z,7.28
2023-05-22T07:11:06.998Z,3.70
2023-05-22T07:13:34.344Z,3.28
2023-05-22T07:16:02.232Z,3.50
2023-05-22T07:18:29.337Z,2.90
2023-05-22T07:20:56.766Z,3.47
2023-05-22T07:23:25.569Z,3.38
2023-05-22T07:25:54.111Z,6.53
2023-05-22T07:28:21.257Z,3.58
2023-05-22T07:30:48.568Z,3.72
2023-05-22T07:33:16.258Z,8.82
2023-05-22T07:35:45.717Z,1.90
2023-05-22T07:38:12.875Z,4.75
2023-05-22T07:40:40.710Z,3.42
2023-05-22T07:43:07.944Z,2.80
2023-05-22T07:45:35.619Z,3.25
2023-05-22T07:48:04.456Z,2.65
2023-05-22T07:50:33.473Z,2.22
2023-05-22T07:53:01.135Z,3.85
2023-05-22T07:55:28.527Z,3.83
2023-05-22T07:57:56.410Z,2.17
2023-05-22T08:00:25.354Z,1.42
2023-05-22T08:02:52.577Z,2.70
2023-05-22T08:05:20.293Z,2.67
2023-05-22T08:07:47.878Z,2.78
2023-05-22T08:10:17.259Z,1.73
2023-05-22T08:12:44.481Z,2.08
2023-05-22T08:15:12.605Z,1.67
2023-05-22T08:17:39.863Z,2.80
2023-05-22T08:20:09.394Z,3.47
2023-05-22T08:22:38.992Z,2.35
2023-05-22T08:25:06.924Z,3.00
2023-05-22T08:27:33.979Z,3.03
2023-05-22T08:30:03.991Z,11.65
2023-05-22T08:32:31.365Z,3.75
2023-05-22T08:34:59.578Z,7.97
2023-05-22T08:37:26.676Z,3.50
2023-05-22T08:39:54.059Z,1.67
2023-05-22T08:42:21.182Z,2.67
2023-05-22T08:44:49.016Z,2.38
2023-05-22T08:47:16.679Z,2.22
2023-05-22T08:49:45.566Z,2.47
2023-05-22T08:52:23.248Z,2.42
2023-05-22T08:54:54.682Z,2.63
2023-05-22T08:57:23.358Z,4.40
2023-05-22T08:59:51.206Z,3.10
2023-05-22T09:02:19.288Z,2.67
2023-05-22T09:04:46.762Z,1.40
2023-05-22T09:07:14.664Z,1.40
2023-05-22T09:09:42.308Z,3.13
2023-05-22T09:12:10.777Z,1.70
2023-05-22T09:14:42.439Z,1.55
2023-05-22T09:17:14.666Z,3.95
2023-05-22T09:22:15.213Z,3.83
2023-05-22T09:24:47.247Z,4.60
2023-05-22T09:27:14.512Z,1.35
2023-05-22T09:29:51.887Z,2.47
2023-05-22T09:32:19.906Z,2.47
2023-05-22T09:34:48.352Z,2.75
2023-05-22T09:37:16.724Z,1.35
2023-05-22T09:39:46.137Z,1.67
2023-05-22T09:42:17.142Z,1.15
2023-05-22T09:44:51.760Z,1.83
2023-05-22T09:47:19.170Z,1.83
2023-05-22T09:49:49.213Z,2.72
2023-05-22T09:52:18.091Z,2.80
2023-05-22T09:54:55.900Z,2.22
2023-05-22T09:57:26.414Z,3.67
2023-05-22T09:59:58.906Z,2.55
2023-05-22T10:02:27.083Z,3.60
2023-05-22T10:04:55.174Z,1.75
2023-05-22T10:07:24.247Z,1.83
2023-05-22T10:10:12.656Z,3.17
2023-05-22T10:12:44.690Z,2.17
2023-05-22T10:15:12.304Z,1.60
2023-05-22T10:17:41.524Z,2.10
2023-05-22T10:20:10.428Z,2.75
2023-05-22T10:22:38.663Z,1.27
2023-05-22T10:25:08.551Z,2.33
2023-05-22T10:27:37.654Z,2.45
2023-05-22T10:30:32.523Z,3.33
2023-05-22T10:33:12.323Z,3.25
2023-05-22T10:35:48.949Z,1.83
2023-05-22T10:38:30.901Z,3.13
2023-05-22T10:40:59.245Z,3.42
2023-05-22T10:43:31.818Z,3.17
2023-05-22T10:46:05.438Z,2.60
2023-05-22T10:48:46.662Z,1.60
2023-05-22T10:51:19.789Z,3.47
2023-05-22T10:53:53.277Z,2.80
2023-05-22T10:56:24.469Z,3.05
2023-05-22T10:58:57.880Z,2.38
2023-05-22T11:01:33.349Z,1.75
2023-05-22T11:04:22.311Z,1.10
2023-05-22T11:07:11.086Z,2.00
2023-05-22T11:09:43.311Z,2.83
2023-05-22T11:12:28.505Z,8.32
2023-05-22T11:15:03.164Z,3.78
2023-05-22T11:17:32.472Z,4.57
2023-05-22T11:20:21.052Z,1.83
2023-05-22T11:23:00.826Z,1.40
2023-05-22T11:25:29.183Z,2.58
2023-05-22T11:27:57.438Z,2.28
2023-05-22T11:30:30.575Z,2.05
2023-05-22T11:33:02.163Z,2.03
2023-05-22T11:35:29.840Z,3.35
2023-05-22T11:37:57.302Z,4.65
2023-05-22T11:40:27.524Z,4.78
2023-05-22T11:42:55.087Z,2.47
2023-05-22T11:45:22.535Z,3.63
2023-05-22T11:47:50.266Z,4.55
2023-05-22T11:50:29.403Z,2.35
2023-05-22T11:53:05.732Z,5.55
2023-05-22T11:55:33.976Z,1.92
2023-05-22T11:58:03.083Z,2.20
2023-05-22T12:00:31.786Z,2.80
2023-05-22T12:02:59.681Z,1.63
2023-05-22T12:05:26.989Z,1.08
2023-05-22T12:07:54.850Z,1.70
2023-05-22T12:10:21.982Z,2.35
2023-05-22T12:12:49.680Z,2.13
2023-05-22T12:15:22.526Z,1.38
2023-05-22T12:17:50.377Z,1.70
2023-05-22T12:20:17.520Z,2.60
2023-05-22T12:22:45.028Z,1.95
2023-05-22T12:25:20.401Z,3.17
2023-05-22T12:27:48.014Z,1.35
2023-05-22T12:30:16.168Z,2.53
2023-05-22T12:32:48.966Z,2.88
2023-05-22T12:35:17.518Z,1.25
2023-05-22T12:37:50.026Z,2.83
2023-05-22T12:40:17.460Z,6.72
2023-05-22T12:42:45.409Z,2.47
2023-05-22T12:45:13.428Z,1.98
2023-05-22T12:47:41.373Z,1.85
2023-05-22T12:50:09.139Z,1.42
2023-05-22T12:52:36.646Z,5.13
2023-05-22T12:55:04.728Z,2.25
2023-05-22T12:57:32.010Z,1.65
2023-05-22T12:59:59.005Z,3.15
2023-05-22T13:02:26.800Z,3.78
2023-05-22T13:04:54.004Z,2.05
2023-05-22T13:07:21.828Z,1.75
2023-05-22T13:09:53.561Z,1.90
2023-05-22T13:12:24.531Z,2.17
2023-05-22T13:14:53.296Z,2.58
2023-05-22T13:17:25.991Z,5.68
2023-05-22T13:19:59.214Z,3.35
2023-05-22T13:22:29.953Z,2.03
2023-05-22T13:24:58.150Z,3.03
2023-05-22T13:27:33.547Z,2.63
2023-05-22T13:30:06.600Z,4.70
2023-05-22T13:32:36.004Z,5.00
2023-05-22T13:35:05.945Z,4.57
2023-05-22T13:37:38.022Z,3.05
2023-05-22T13:40:07.706Z,1.75
2023-05-22T13:42:38.194Z,2.75
2023-05-22T13:45:07.992Z,2.15
2023-05-22T13:47:37.338Z,1.98
2023-05-22T13:50:06.552Z,4.85
2023-05-22T13:52:34.777Z,2.67
2023-05-22T13:55:02.589Z,3.50
2023-05-22T13:57:30.867Z,6.55
2023-05-22T13:59:59.679Z,3.97
2023-05-22T14:02:35.980Z,2.00
2023-05-22T14:05:04.104Z,4.65
2023-05-22T14:07:38.238Z,1.95
2023-05-22T14:10:07.879Z,1.58
2023-05-22T14:12:40.290Z,2.38
2023-05-22T14:15:09.953Z,5.75
2023-05-22T14:17:41.344Z,2.25
2023-05-22T14:20:11.037Z,1.98
2023-05-22T14:22:57.313Z,2.42
2023-05-22T14:25:27.682Z,1.50
2023-05-22T14:28:00.057Z,1.33
2023-05-22T14:30:28.371Z,1.98
2023-05-22T14:32:58.049Z,3.72
2023-05-22T14:35:26.589Z,1.95
2023-05-22T14:37:55.971Z,5.05
2023-05-22T14:40:23.906Z,1.63
2023-05-22T14:42:54.160Z,4.07
2023-05-22T14:45:21.903Z,2.35
2023-05-22T14:47:49.248Z,3.83
2023-05-22T14:50:19.798Z,2.75
2023-05-22T14:52:49.562Z,3.97
2023-05-22T14:55:17.257Z,1.35
2023-05-22T14:57:44.778Z,2.38
2023-05-22T15:00:12.818Z,1.65
2023-05-22T15:02:41.189Z,5.18
2023-05-22T15:05:09.063Z,2.20
2023-05-22T15:07:43.813Z,2.55
2023-05-22T15:10:11.583Z,6.43
2023-05-22T15:12:39.409Z,2.30
2023-05-22T15:15:07.014Z,3.72
2023-05-22T15:17:34.492Z,1.80
2023-05-22T15:20:02.056Z,5.18
2023-05-22T15:22:30.867Z,2.40
2023-05-22T15:25:08.855Z,2.22
2023-05-22T15:27:36.447Z,2.17
2023-05-22T15:30:05.775Z,2.40
2023-05-22T15:32:33.612Z,1.73
2023-05-22T15:35:00.914Z,2.30
2023-05-22T15:37:32.493Z,3.83
2023-05-22T15:40:04.428Z,5.40
2023-05-22T15:42:32.355Z,1.90
2023-05-22T15:45:00.681Z,2.72
2023-05-22T15:47:30.105Z,2.65
2023-05-22T15:49:57.290Z,2.20
2023-05-22T15:52:25.376Z,2.88
2023-05-22T15:54:53.974Z,4.20
2023-05-22T15:57:22.980Z,3.63
2023-05-22T15:59:51.183Z,2.67
2023-05-22T16:02:19.202Z,5.90
2023-05-22T16:04:46.576Z,5.20
2023-05-22T16:07:14.346Z,4.15
2023-05-22T16:09:43.478Z,2.70
2023-05-22T16:12:11.214Z,2.92
2023-05-22T16:14:39.832Z,3.08
2023-05-22T16:17:07.954Z,1.80
2023-05-22T16:19:35.279Z,5.03
2023-05-22T16:22:03.119Z,2.95
2023-05-22T16:24:30.138Z,2.53
2023-05-22T16:26:59.392Z,5.68
2023-05-22T16:29:26.707Z,1.85
2023-05-22T16:31:56.251Z,3.05
2023-05-22T16:34:23.427Z,2.83
2023-05-22T16:36:51.169Z,4.13
2023-05-22T16:39:18.259Z,2.78
2023-05-22T16:41:45.749Z,3.42
2023-05-22T16:44:12.830Z,3.00
2023-05-22T16:46:41.196Z,2.65
2023-05-22T16:49:08.442Z,2.55
2023-05-22T16:51:36.538Z,3.58
2023-05-22T16:54:03.822Z,3.30
2023-05-22T16:56:34.072Z,3.08
2023-05-22T16:59:02.032Z,3.58
2023-05-22T17:01:29.487Z,2.50
2023-05-22T17:03:56.635Z,4.53
2023-05-22T17:06:24.221Z,3.22
2023-05-22T17:08:51.280Z,2.97
2023-05-22T17:11:18.715Z,3.05
2023-05-22T17:13:46.023Z,4.80
2023-05-22T17:16:13.870Z,2.50
2023-05-22T17:18:41.263Z,2.35
2023-05-22T17:21:11.850Z,2.58
2023-05-22T17:23:39.071Z,2.60
2023-05-22T17:26:07.329Z,4.05
2023-05-22T17:28:34.559Z,2.75
2023-05-22T17:31:02.147Z,1.80
2023-05-22T17:33:29.354Z,4.65
2023-05-22T17:35:57.498Z,5.88
2023-05-22T17:38:24.901Z,5.68
2023-05-22T17:40:52.816Z,3.65
2023-05-22T17:43:20.082Z,2.80
2023-05-22T17:45:51.389Z,3.33
2023-05-22T17:48:23.613Z,3.30
2023-05-22T17:53:21.115Z,5.43
2023-05-22T17:55:50.271Z,3.47
2023-05-22T17:58:17.888Z,4.03
2023-05-22T18:00:46.779Z,3.35
2023-05-22T18:03:14.656Z,3.22
2023-05-22T18:05:43.663Z,2.60
2023-05-22T18:08:11.009Z,4.70
2023-05-22T18:10:39.297Z,4.85
2023-05-22T18:13:06.627Z,2.13
2023-05-22T18:15:34.400Z,4.93
2023-05-22T18:18:02.260Z,3.22
2023-05-22T18:20:29.772Z,5.18
2023-05-22T18:22:56.952Z,4.43
2023-05-22T18:25:24.743Z,4.57
2023-05-22T18:27:52.002Z,3.25
2023-05-22T18:30:20.086Z,4.97
2023-05-22T18:32:47.954Z,4.43
2023-05-22T18:35:15.544Z,2.85
2023-05-22T18:37:42.758Z,4.00
2023-05-22T18:40:12.559Z,6.35
2023-05-22T18:42:39.804Z,4.90
2023-05-22T18:45:09.534Z,4.78
2023-05-22T18:47:37.702Z,4.78
2023-05-22T18:50:05.878Z,4.95
2023-05-22T18:52:33.223Z,5.60
2023-05-22T18:55:01.011Z,4.13
2023-05-22T18:57:28.189Z,3.08
2023-05-22T18:59:56.125Z,8.77
2023-05-22T19:02:24.062Z,3.50
2023-05-22T19:04:52.723Z,2.92
2023-05-22T19:07:21.314Z,2.58
2023-05-22T19:09:49.699Z,3.80
2023-05-22T19:12:17.460Z,7.45
2023-05-22T19:14:45.091Z,5.90
2023-05-22T19:17:12.511Z,6.75
2023-05-22T19:19:39.978Z,6.93
2023-05-22T19:22:07.130Z,10.68
2023-05-22T19:24:34.893Z,15.90
2023-05-22T19:27:01.877Z,11.90
2023-05-22T19:29:29.723Z,8.07
2023-05-22T19:31:56.908Z,5.25
2023-05-22T19:34:24.394Z,5.47
2023-05-22T19:36:52.237Z,4.53
2023-05-22T19:39:20.103Z,5.57
2023-05-22T19:41:47.843Z,8.50
2023-05-22T19:44:15.260Z,12.77
2023-05-22T19:46:42.428Z,10.55
2023-05-22T19:49:10.375Z,10.35
2023-05-22T19:51:37.902Z,11.23
2023-05-22T19:54:06.077Z,11.27
2023-05-22T19:56:35.048Z,8.75
2023-05-22T19:59:02.535Z,7.88
2023-05-22T20:01:30.265Z,7.72
2023-05-22T20:03:57.669Z,8.73
2023-05-22T20:06:24.944Z,6.25
2023-05-22T20:08:52.566Z,7.55
2023-05-22T20:11:19.811Z,5.65
2023-05-22T20:13:47.532Z,7.60
2023-05-22T20:16:16.019Z,7.13
2023-05-22T20:18:44.660Z,10.10
2023-05-22T20:21:11.973Z,13.90
2023-05-22T20:23:40.092Z,7.25
2023-05-22T20:26:07.309Z,6.10
2023-05-22T20:28:35.378Z,10.10
2023-05-22T20:31:02.436Z,8.23
2023-05-22T20:33:29.746Z,7.53
2023-05-22T20:35:57.021Z,9.48
2023-05-22T20:38:25.995Z,5.70
2023-05-22T20:40:53.666Z,5.75
2023-05-22T20:43:21.526Z,6.78
2023-05-22T20:45:48.822Z,8.00
2023-05-22T20:48:17.059Z,5.63
2023-05-22T20:50:47.153Z,8.40
2023-05-22T20:53:15.096Z,6.07
2023-05-22T20:55:42.318Z,4.53
2023-05-22T20:58:09.904Z,6.07
2023-05-22T21:00:36.991Z,7.55
2023-05-22T21:03:04.871Z,6.13
2023-05-22T21:05:31.945Z,8.13
2023-05-22T21:07:59.531Z,5.70
2023-05-22T21:10:26.560Z,7.95
2023-05-22T21:12:54.375Z,9.27
2023-05-22T21:15:21.577Z,8.10
2023-05-22T21:17:48.966Z,7.55
2023-05-22T21:20:16.256Z,7.38
2023-05-22T21:22:44.005Z,8.25
2023-05-22T21:25:11.209Z,9.77
2023-05-22T21:27:38.588Z,7.05
2023-05-22T21:30:06.539Z,9.07
2023-05-22T21:32:34.213Z,12.85
2023-05-22T21:35:01.282Z,8.15
2023-05-22T21:37:28.911Z,7.50
2023-05-22T21:39:56.002Z,9.88
2023-05-22T21:42:26.234Z,8.95
2023-05-22T21:44:53.452Z,6.75
2023-05-22T21:47:21.333Z,8.45
2023-05-22T21:49:48.615Z,7.82
2023-05-22T21:52:16.660Z,7.10
2023-05-22T21:54:43.844Z,10.68
2023-05-22T21:57:11.229Z,8.68
2023-05-22T21:59:39.630Z,8.48
2023-05-22T22:02:07.079Z,13.27
2023-05-22T22:04:34.166Z,8.60
2023-05-22T22:07:01.598Z,8.65
2023-05-22T22:09:28.871Z,9.98
2023-05-22T22:11:56.489Z,10.07
2023-05-22T22:14:24.062Z,8.82
2023-05-22T22:16:54.653Z,9.38
2023-05-22T22:19:22.870Z,8.57
2023-05-22T22:21:50.791Z,13.23
2023-05-22T22:24:18.469Z,8.73
2023-05-22T22:26:47.965Z,9.70
2023-05-22T22:29:15.956Z,11.80
2023-05-22T22:31:43.322Z,12.95
2023-05-22T22:34:10.516Z,12.10
2023-05-22T22:36:38.120Z,12.02
2023-05-22T22:39:05.151Z,10.23
2023-05-22T22:41:32.558Z,9.68
2023-05-22T22:43:59.710Z,9.30
2023-05-22T22:46:27.113Z,9.13
2023-05-22T22:48:55.564Z,10.32
2023-05-22T22:51:24.672Z,8.57
2023-05-22T22:53:52.334Z,10.85
2023-05-22T22:56:20.530Z,7.60
2023-05-22T22:58:47.942Z,10.65
2023-05-22T23:01:15.380Z,9.20
2023-05-22T23:03:42.581Z,11.20
2023-05-22T23:06:10.214Z,10.73
2023-05-22T23:08:37.514Z,9.13
2023-05-22T23:11:05.071Z,9.35
2023-05-22T23:13:32.169Z,11.68
2023-05-22T23:16:00.113Z,11.35
2023-05-22T23:18:27.173Z,12.07
2023-05-22T23:20:54.476Z,10.55
2023-05-22T23:23:21.540Z,8.13
2023-05-22T23:25:49.486Z,11.13
2023-05-22T23:28:17.026Z,8.00
2023-05-22T23:30:44.336Z,7.93
2023-05-22T23:33:12.962Z,11.02
2023-05-22T23:35:40.619Z,9.27
2023-05-22T23:38:07.977Z,9.70
2023-05-22T23:40:35.474Z,8.60
2023-05-22T23:43:03.043Z,8.90
2023-05-22T23:45:31.548Z,10.80
2023-05-22T23:47:58.708Z,10.35
2023-05-22T23:50:26.803Z,11.15
2023-05-22T23:52:54.215Z,8.30
2023-05-22T23:55:22.486Z,8.73
2023-05-22T23:57:50.091Z,10.85
